Time,TemperatureF,DewpointF,PressureIn,WindDirection,WindDirectionDegrees,WindSpeedMPH,WindSpeedGustMPH,Humidity,HourlyPrecipIn,Conditions,Clouds,dailyrainin,SolarRadiationWatts/m^2,SoftwareType,DateUTC
2013-03-02 00:06:00,25.0,20.0,30.20,NNW,329,4.0,8.0,82,0.00,,,0.00,0,weatherlink.com 1.10,2013-03-02 06:06:00,
2013-03-02 00:21:00,24.7,20.0,30.20,NNE,26,5.0,8.0,82,0.00,,,0.00,0,weatherlink.com 1.10,2013-03-02 06:21:00,
2013-03-02 00:36:00,24.6,20.0,30.20,NNW,347,3.0,7.0,82,0.00,,,0.00,0,weatherlink.com 1.10,2013-03-02 06:36:00,
2013-03-02 00:51:00,24.2,19.0,30.20,NNW,329,2.0,7.0,82,0.00,,,0.00,0,weatherlink.com 1.10,2013-03-02 06:51:00,
2013-03-02 01:06:00,24.0,19.0,30.20,North,5,3.0,8.0,82,0.00,,,0.00,0,weatherlink.com 1.10,2013-03-02 07:06:00,
2013-03-02 01:21:00,23.8,19.0,30.21,NNW,345,5.0,6.0,83,0.00,,,0.00,0,weatherlink.com 1.10,2013-03-02 07:21:00,
2013-03-02 01:36:00,23.7,19.0,30.21,NNW,348,3.0,8.0,83,0.00,,,0.00,0,weatherlink.com 1.10,2013-03-02 07:36:00,
2013-03-02 01:51:00,23.5,19.0,30.20,North,350,2.0,6.0,83,0.00,,,0.00,0,weatherlink.com 1.10,2013-03-02 07:51:00,
2013-03-02 02:06:00,23.3,19.0,30.20,NNE,20,3.0,7.0,83,0.00,,,0.00,0,weatherlink.com 1.10,2013-03-02 08:06:00,
2013-03-02 02:21:00,23.1,19.0,30.20,NNE,15,2.0,7.0,83,0.00,,,0.00,0,weatherlink.com 1.10,2013-03-02 08:21:00,
2013-03-02 02:36:00,22.9,19.0,30.20,NNW,346,3.0,7.0,83,0.00,,,0.00,0,weatherlink.com 1.10,2013-03-02 08:36:00,
2013-03-02 02:51:00,22.7,18.0,30.20,NW,306,4.0,7.0,83,0.00,,,0.00,0,weatherlink.com 1.10,2013-03-02 08:51:00,
2013-03-02 03:06:00,22.7,18.0,30.20,North,355,1.0,10.0,83,0.00,,,0.00,0,weatherlink.com 1.10,2013-03-02 09:06:00,
2013-03-02 03:21:00,22.8,18.0,30.20,NNW,337,4.0,11.0,83,0.00,,,0.00,0,weatherlink.com 1.10,2013-03-02 09:21:00,
2013-03-02 03:36:00,22.7,18.0,30.19,WNW,302,3.0,7.0,83,0.00,,,0.00,0,weatherlink.com 1.10,2013-03-02 09:36:00,
2013-03-02 03:51:00,22.8,18.0,30.19,NNW,333,3.0,7.0,83,0.00,,,0.00,0,weatherlink.com 1.10,2013-03-02 09:51:00,
2013-03-02 04:06:00,22.8,18.0,30.19,NNW,337,1.0,6.0,83,0.00,,,0.00,0,weatherlink.com 1.10,2013-03-02 10:06:00,
2013-03-02 04:21:00,22.6,18.0,30.19,NNE,13,4.0,5.0,83,0.00,,,0.00,0,weatherlink.com 1.10,2013-03-02 10:21:00,
2013-03-02 04:36:00,22.5,18.0,30.19,North,349,4.0,5.0,82,0.00,,,0.00,0,weatherlink.com 1.10,2013-03-02 10:36:00,
2013-03-02 04:51:00,22.5,18.0,30.19,North,355,3.0,6.0,82,0.00,,,0.00,0,weatherlink.com 1.10,2013-03-02 10:51:00,
2013-03-02 05:06:00,22.4,17.0,30.20,ENE,62,3.0,6.0,81,0.00,,,0.00,0,weatherlink.com 1.10,2013-03-02 11:06:00,
2013-03-02 05:21:00,22.2,17.0,30.19,ENE,60,2.0,7.0,81,0.00,,,0.00,0,weatherlink.com 1.10,2013-03-02 11:21:00,
2013-03-02 05:36:00,22.0,17.0,30.20,North,355,2.0,5.0,81,0.00,,,0.00,0,weatherlink.com 1.10,2013-03-02 11:36:00,
2013-03-02 05:51:00,21.8,17.0,30.20,WNW,298,3.0,6.0,80,0.00,,,0.00,0,weatherlink.com 1.10,2013-03-02 11:51:00,
2013-03-02 06:06:00,21.7,17.0,30.20,NW,311,2.0,4.0,81,0.00,,,0.00,0,weatherlink.com 1.10,2013-03-02 12:06:00,
2013-03-02 06:21:00,21.7,17.0,30.20,North,360,2.0,6.0,81,0.00,,,0.00,0,weatherlink.com 1.10,2013-03-02 12:21:00,
2013-03-02 06:36:00,21.7,16.0,30.20,NW,306,1.0,7.0,80,0.00,,,0.00,9,weatherlink.com 1.10,2013-03-02 12:36:00,
2013-03-02 06:51:00,21.6,16.0,30.20,North,355,1.0,7.0,80,0.00,,,0.00,26,weatherlink.com 1.10,2013-03-02 12:51:00,
2013-03-02 07:06:00,21.6,16.0,30.21,NW,304,2.0,6.0,80,0.00,,,0.00,60,weatherlink.com 1.10,2013-03-02 13:06:00,
2013-03-02 07:21:00,21.8,16.0,30.21,NW,318,2.0,6.0,79,0.00,,,0.00,70,weatherlink.com 1.10,2013-03-02 13:21:00,
2013-03-02 07:36:00,22.1,17.0,30.21,NW,321,2.0,5.0,80,0.00,,,0.00,90,weatherlink.com 1.10,2013-03-02 13:36:00,
2013-03-02 07:51:00,22.1,17.0,30.21,NW,308,4.0,5.0,79,0.00,,,0.00,120,weatherlink.com 1.10,2013-03-02 13:51:00,
2013-03-02 08:06:00,22.0,16.0,30.21,North,9,2.0,7.0,79,0.00,,,0.00,116,weatherlink.com 1.10,2013-03-02 14:06:00,
2013-03-02 08:21:00,22.4,17.0,30.21,NNE,13,3.0,6.0,79,0.00,,,0.00,171,weatherlink.com 1.10,2013-03-02 14:21:00,
2013-03-02 08:37:00,22.7,17.0,30.21,North,360,1.0,5.0,78,0.00,,,0.00,192,weatherlink.com 1.10,2013-03-02 14:37:00,
2013-03-02 08:52:00,22.7,17.0,30.21,NNW,336,4.0,9.0,78,0.00,,,0.00,206,weatherlink.com 1.10,2013-03-02 14:52:00,
2013-03-02 09:07:00,23.6,18.0,30.21,NNW,348,3.0,9.0,78,0.00,,,0.00,246,weatherlink.com 1.10,2013-03-02 15:07:00,
2013-03-02 09:22:00,24.0,18.0,30.21,WNW,289,3.0,6.0,77,0.00,,,0.00,299,weatherlink.com 1.10,2013-03-02 15:22:00,
2013-03-02 09:37:00,24.3,18.0,30.21,NW,311,4.0,6.0,76,0.00,,,0.00,362,weatherlink.com 1.10,2013-03-02 15:37:00,
2013-03-02 09:52:00,24.9,18.0,30.21,NNW,333,3.0,8.0,76,0.00,,,0.00,360,weatherlink.com 1.10,2013-03-02 15:52:00,
2013-03-02 10:07:00,25.1,18.0,30.21,North,355,5.0,9.0,75,0.00,,,0.00,394,weatherlink.com 1.10,2013-03-02 16:07:00,
2013-03-02 10:22:00,25.1,18.0,30.21,NNW,331,4.0,7.0,75,0.00,,,0.00,338,weatherlink.com 1.10,2013-03-02 16:22:00,
2013-03-02 10:37:00,25.3,18.0,30.21,NW,325,4.0,8.0,74,0.00,,,0.00,480,weatherlink.com 1.10,2013-03-02 16:37:00,
2013-03-02 10:52:00,25.9,19.0,30.21,NNW,343,2.0,6.0,75,0.00,,,0.00,403,weatherlink.com 1.10,2013-03-02 16:52:00,
2013-03-02 11:07:00,26.5,20.0,30.21,NW,325,2.0,5.0,75,0.00,,,0.00,425,weatherlink.com 1.10,2013-03-02 17:07:00,
2013-03-02 11:22:00,26.7,20.0,30.21,WNW,287,4.0,8.0,76,0.00,,,0.00,461,weatherlink.com 1.10,2013-03-02 17:22:00,
2013-03-02 11:37:00,27.4,20.0,30.20,WNW,302,2.0,8.0,73,0.00,,,0.00,838,weatherlink.com 1.10,2013-03-02 17:37:00,
2013-03-02 11:52:00,27.9,20.0,30.20,NW,310,3.0,8.0,71,0.00,,,0.00,466,weatherlink.com 1.10,2013-03-02 17:52:00,
2013-03-02 12:07:00,28.0,20.0,30.19,NW,317,3.0,7.0,71,0.00,,,0.00,478,weatherlink.com 1.10,2013-03-02 18:07:00,
2013-03-02 12:22:00,27.6,19.0,30.19,NW,309,4.0,8.0,70,0.00,,,0.00,478,weatherlink.com 1.10,2013-03-02 18:22:00,
2013-03-02 12:37:00,28.5,20.0,30.18,NNW,335,3.0,7.0,71,0.00,,,0.00,471,weatherlink.com 1.10,2013-03-02 18:37:00,
2013-03-02 12:52:00,28.2,20.0,30.18,NNW,335,2.0,7.0,71,0.00,,,0.00,339,weatherlink.com 1.10,2013-03-02 18:52:00,
2013-03-02 13:07:00,28.3,20.0,30.18,NW,314,5.0,6.0,71,0.00,,,0.00,362,weatherlink.com 1.10,2013-03-02 19:07:00,
2013-03-02 13:22:00,27.9,20.0,30.18,NW,317,5.0,9.0,71,0.00,,,0.00,555,weatherlink.com 1.10,2013-03-02 19:22:00,
2013-03-02 13:37:00,27.8,20.0,30.18,NNW,335,2.0,7.0,71,0.00,,,0.00,661,weatherlink.com 1.10,2013-03-02 19:37:00,
2013-03-02 13:52:00,28.1,20.0,30.17,NW,309,6.0,6.0,71,0.01,,,0.01,598,weatherlink.com 1.10,2013-03-02 19:52:00,
2013-03-02 14:07:00,27.4,19.0,30.18,NNW,348,2.0,8.0,70,0.02,,,0.02,578,weatherlink.com 1.10,2013-03-02 20:07:00,
2013-03-02 14:22:00,27.8,19.0,30.18,NNW,346,2.0,6.0,70,0.03,,,0.03,552,weatherlink.com 1.10,2013-03-02 20:22:00,
2013-03-02 14:37:00,27.5,19.0,30.17,North,350,3.0,7.0,70,0.03,,,0.03,425,weatherlink.com 1.10,2013-03-02 20:37:00,
2013-03-02 14:52:00,27.2,19.0,30.18,ENE,58,2.0,6.0,71,0.03,,,0.04,65,weatherlink.com 1.10,2013-03-02 20:52:00,
2013-03-02 15:07:00,27.1,19.0,30.18,NE,53,5.0,6.0,71,0.02,,,0.04,100,weatherlink.com 1.10,2013-03-02 21:07:00,
2013-03-02 15:22:00,26.9,19.0,30.18,North,5,3.0,7.0,72,0.02,,,0.05,58,weatherlink.com 1.10,2013-03-02 21:22:00,
2013-03-02 15:37:00,27.0,19.0,30.18,WNW,296,8.0,8.0,73,0.02,,,0.05,84,weatherlink.com 1.10,2013-03-02 21:37:00,
2013-03-02 15:52:00,27.2,19.0,30.18,NNW,333,3.0,6.0,71,0.01,,,0.05,153,weatherlink.com 1.10,2013-03-02 21:52:00,
2013-03-02 16:07:00,27.4,19.0,30.18,North,355,1.0,6.0,71,0.01,,,0.05,114,weatherlink.com 1.10,2013-03-02 22:07:00,
2013-03-02 16:22:00,26.4,19.0,30.18,North,355,5.0,8.0,73,0.00,,,0.05,51,weatherlink.com 1.10,2013-03-02 22:22:00,
2013-03-02 16:37:00,25.6,19.0,30.18,NNW,327,4.0,6.0,75,0.00,,,0.05,28,weatherlink.com 1.10,2013-03-02 22:37:00,
2013-03-02 17:07:00,25.4,18.0,30.18,North,355,2.0,5.0,73,0.00,,,0.05,35,weatherlink.com 1.10,2013-03-02 23:07:00,
2013-03-02 17:22:00,25.8,19.0,30.18,NE,36,3.0,6.0,74,0.00,,,0.05,21,weatherlink.com 1.10,2013-03-02 23:22:00,
2013-03-02 17:37:00,25.6,19.0,30.18,West,280,2.0,9.0,75,0.00,,,0.05,7,weatherlink.com 1.10,2013-03-02 23:37:00,
2013-03-02 17:52:00,25.2,19.0,30.19,North,10,3.0,6.0,76,0.00,,,0.05,0,weatherlink.com 1.10,2013-03-02 23:52:00,
2013-03-02 18:07:00,25.1,19.0,30.19,NNW,338,3.0,6.0,76,0.00,,,0.05,0,weatherlink.com 1.10,2013-03-03 00:07:00,
2013-03-02 18:22:00,24.7,18.0,30.19,NNE,15,2.0,8.0,76,0.00,,,0.05,0,weatherlink.com 1.10,2013-03-03 00:22:00,
2013-03-02 18:37:00,24.3,17.0,30.20,ENE,65,2.0,4.0,75,0.00,,,0.05,0,weatherlink.com 1.10,2013-03-03 00:37:00,
2013-03-02 18:52:00,23.9,17.0,30.20,NNW,348,1.0,6.0,76,0.00,,,0.05,0,weatherlink.com 1.10,2013-03-03 00:52:00,
2013-03-02 19:07:00,23.2,17.0,30.20,NW,324,1.0,5.0,76,0.00,,,0.05,0,weatherlink.com 1.10,2013-03-03 01:07:00,
2013-03-02 19:22:00,22.8,17.0,30.20,NW,320,2.0,5.0,77,0.00,,,0.05,0,weatherlink.com 1.10,2013-03-03 01:22:00,
2013-03-02 19:37:00,22.7,17.0,30.19,NW,315,2.0,5.0,77,0.00,,,0.05,0,weatherlink.com 1.10,2013-03-03 01:37:00,
2013-03-02 19:52:00,22.2,16.0,30.19,NW,323,1.0,4.0,77,0.00,,,0.05,0,weatherlink.com 1.10,2013-03-03 01:52:00,
2013-03-02 20:07:00,21.8,16.0,30.19,WNW,293,1.0,3.0,78,0.00,,,0.05,0,weatherlink.com 1.10,2013-03-03 02:07:00,
2013-03-02 20:22:00,21.6,16.0,30.19,WNW,293,1.0,2.0,78,0.00,,,0.05,0,weatherlink.com 1.10,2013-03-03 02:22:00,
2013-03-02 20:37:00,21.2,15.0,30.19,WNW,293,0.0,2.0,78,0.00,,,0.05,0,weatherlink.com 1.10,2013-03-03 02:37:00,
2013-03-02 20:52:00,20.6,15.0,30.19,WNW,293,1.0,2.0,79,0.00,,,0.05,0,weatherlink.com 1.10,2013-03-03 02:52:00,
2013-03-02 21:07:00,20.3,15.0,30.19,WNW,293,0.0,1.0,80,0.00,,,0.05,0,weatherlink.com 1.10,2013-03-03 03:07:00,
2013-03-02 21:22:00,20.0,15.0,30.18,WNW,293,0.0,1.0,80,0.00,,,0.05,0,weatherlink.com 1.10,2013-03-03 03:22:00,
2013-03-02 21:37:00,19.8,15.0,30.18,WNW,293,0.0,1.0,81,0.00,,,0.05,0,weatherlink.com 1.10,2013-03-03 03:37:00,
2013-03-02 21:52:00,19.5,15.0,30.18,WNW,293,0.0,1.0,81,0.00,,,0.05,0,weatherlink.com 1.10,2013-03-03 03:52:00,
2013-03-02 22:07:00,19.4,15.0,30.18,WNW,293,1.0,1.0,82,0.00,,,0.05,0,weatherlink.com 1.10,2013-03-03 04:07:00,
2013-03-02 22:23:00,19.3,15.0,30.18,WNW,293,0.0,2.0,82,0.00,,,0.05,0,weatherlink.com 1.10,2013-03-03 04:23:00,
2013-03-02 22:38:00,19.1,14.0,30.18,WNW,294,3.0,3.0,81,0.00,,,0.05,0,weatherlink.com 1.10,2013-03-03 04:38:00,
2013-03-02 22:53:00,19.0,14.0,30.17,West,280,1.0,4.0,81,0.00,,,0.05,0,weatherlink.com 1.10,2013-03-03 04:53:00,
2013-03-02 23:08:00,19.1,14.0,30.17,WNW,294,3.0,3.0,80,0.00,,,0.05,0,weatherlink.com 1.10,2013-03-03 05:08:00,
2013-03-02 23:23:00,18.8,13.0,30.17,WNW,294,3.0,3.0,79,0.00,,,0.05,0,weatherlink.com 1.10,2013-03-03 05:23:00,
2013-03-02 23:38:00,18.6,13.0,30.16,WNW,292,2.0,5.0,79,0.00,,,0.05,0,weatherlink.com 1.10,2013-03-03 05:38:00,
2013-03-02 23:53:00,18.5,13.0,30.16,NW,306,1.0,4.0,79,0.00,,,0.05,0,weatherlink.com 1.10,2013-03-03 05:53:00,